Airfield :
LOGIN :

Register | Disclaimer

   EN    FR    IT 

 










Legend :    VFR   Marginal VFR   IFR   Intensive IFR   Very Intensive IFR
Visi :
Ceiling :
>= 8 km
>= 3000ft
5 to 8 km
1000 to 3000 ft
1500m to 5 km
500 to 1000 ft
800 to 1500m
200 to 500 ft
< 800m
< 200 ft
Symbols :   Thunderstorms  Fog  Heavy snow  Heavy precipitations  Wind > 20 kt
SIGMETs :     Misc.  Thunderstorms  Icing  Turbulence  Mountain Waves  Volcanic Ashes






- Airport Elevation : 776 ft
- IATA code : RMS


ETAR - Ramstein Air Base

CURRENT METAR :
  • 121956Z AUTO 32005KT 9999 CLR 19/14 A3020 RMK AO2 SLP222 T01910143 FZRANO $

EXPIRED METARs :
  • 121856Z AUTO 31008KT 9999 CLR 21/15 A3019 RMK AO2 SLP218 T02130149 FZRANO $
  • 121756Z AUTO 30010KT 9999 CLR 22/16 A3017 RMK AO2 SLP212 T02240157 10257 20222 52008 FZRANO

TAF TAF ETAR
Valid from the 12 at 18:00 until the 14 at 00:00 UTC


121800Z 1218/1324 32006KT 9999 SCT050 QNH3010INS
BECMG 1306/1307 02009KT 9999 FEW030 QNH3032INS TX28/1314Z TN12/1304Z



MET'MAP, your aeronautical weather chart ! - Copyright ORBIFLY December 2007 - Disclaimer

ORBIFLY MET'MAP TEAM :

Programming & Development : Alexandra Zaïnal
Concept & original design : Baudouin d'Aumeries
Assistance for programming : Marc-Olivier Méhu
Technical & hardware support : Manuel Goepfert

Contact : metmap@orbifly.com




SOURCES & CREDITS :

   NOAA